createdAt,value
2018-07-13T00:02:02.469Z,99360.78
2018-07-13T00:04:31.570Z,99363.64
2018-07-13T00:07:00.744Z,99364.32
2018-07-13T00:09:29.684Z,99363.98
2018-07-13T00:11:58.558Z,99366.68
2018-07-13T00:14:27.788Z,99369.55
2018-07-13T00:16:57.970Z,99368.19
2018-07-13T00:19:27.546Z,99370.39
2018-07-13T00:21:56.625Z,99373.77
2018-07-13T00:24:25.633Z,99380.83
2018-07-13T00:26:54.594Z,99375.28
2018-07-13T00:29:23.833Z,99375.26
2018-07-13T00:31:52.944Z,99377.47
2018-07-13T00:34:22.075Z,99377.30
2018-07-13T00:36:51.629Z,99367.30
2018-07-13T00:39:20.682Z,99372.02
2018-07-13T00:41:49.723Z,99375.73
2018-07-13T00:44:19.567Z,99370.34
2018-07-13T00:46:48.528Z,99365.78
2018-07-13T00:49:17.611Z,99376.22
2018-07-13T00:51:47.203Z,99372.85
2018-07-13T00:54:16.213Z,99375.72
2018-07-13T00:56:45.434Z,99374.67
2018-07-13T00:59:14.634Z,99378.05
2018-07-13T01:01:43.684Z,99378.05
2018-07-13T01:04:12.856Z,99377.69
2018-07-13T01:06:41.866Z,99383.45
2018-07-13T01:09:10.947Z,99380.24
2018-07-13T01:11:40.155Z,99384.09
2018-07-13T01:14:10.389Z,99382.41
2018-07-13T01:16:39.502Z,99383.75
2018-07-13T01:19:08.575Z,99379.55
2018-07-13T01:21:38.478Z,99379.34
2018-07-13T01:24:07.670Z,99380.35
2018-07-13T01:26:36.608Z,99377.12
2018-07-13T01:29:05.763Z,99374.59
2018-07-13T01:31:34.843Z,99376.95
2018-07-13T01:34:03.987Z,99379.98
2018-07-13T01:36:33.138Z,99374.22
2018-07-13T01:39:02.075Z,99380.61
2018-07-13T01:41:31.075Z,99377.08
2018-07-13T01:44:00.452Z,99383.61
2018-07-13T01:46:29.419Z,99380.91
2018-07-13T01:48:58.523Z,99376.50
2018-07-13T01:51:28.642Z,99370.73
2018-07-13T01:53:57.783Z,99368.72
2018-07-13T01:56:26.784Z,99362.99
2018-07-13T01:58:55.907Z,99367.53
2018-07-13T02:01:24.912Z,99364.50
2018-07-13T02:03:53.992Z,99367.02
2018-07-13T02:06:23.169Z,99364.33
2018-07-13T02:08:52.302Z,99365.30
2018-07-13T02:11:21.427Z,99369.83
2018-07-13T02:13:50.754Z,99372.53
2018-07-13T02:16:19.718Z,99367.61
2018-07-13T02:18:48.785Z,99374.98
2018-07-13T02:21:17.982Z,99371.62
2018-07-13T02:23:47.085Z,99373.77
2018-07-13T02:26:16.130Z,99375.60
2018-07-13T02:28:45.788Z,99373.73
2018-07-13T02:31:14.731Z,99374.58
2018-07-13T02:33:43.799Z,99375.88
2018-07-13T02:36:13.219Z,99367.47
2018-07-13T02:38:42.489Z,99368.49
2018-07-13T02:41:11.484Z,99369.97
2018-07-13T02:43:40.552Z,99368.41
2018-07-13T02:46:09.543Z,99367.33
2018-07-13T02:48:38.646Z,99365.81
2018-07-13T02:51:07.765Z,99365.19
2018-07-13T02:53:36.747Z,99370.77
2018-07-13T02:56:06.431Z,99369.98
2018-07-13T02:58:35.562Z,99372.02
2018-07-13T03:01:04.811Z,99369.64
2018-07-13T03:03:33.798Z,99367.91
2018-07-13T03:06:03.010Z,99366.39
2018-07-13T03:08:31.933Z,99363.54
2018-07-13T03:11:01.014Z,99370.27
2018-07-13T03:13:30.266Z,99370.83
2018-07-13T03:15:59.267Z,99371.89
2018-07-13T03:18:28.352Z,99360.98
2018-07-13T03:20:57.559Z,99365.06
2018-07-13T03:23:26.552Z,99359.91
2018-07-13T03:25:56.200Z,99359.63
2018-07-13T03:28:25.584Z,99362.77
2018-07-13T03:30:54.572Z,99366.52
2018-07-13T03:33:23.811Z,99366.88
2018-07-13T03:35:54.160Z,99367.25
2018-07-13T03:38:23.166Z,99361.04
2018-07-13T03:40:52.095Z,99364.91
2018-07-13T03:43:21.167Z,99374.87
2018-07-13T03:45:50.316Z,99374.05
2018-07-13T03:48:19.372Z,99369.37
2018-07-13T03:50:48.717Z,99376.28
2018-07-13T03:53:17.574Z,99367.69
2018-07-13T03:55:46.626Z,99373.77
2018-07-13T03:58:15.884Z,99367.02
2018-07-13T04:00:44.940Z,99369.86
2018-07-13T04:03:13.918Z,99364.28
2018-07-13T04:05:43.460Z,99371.05
2018-07-13T04:08:12.424Z,99368.28
2018-07-13T04:10:41.483Z,99369.09
2018-07-13T04:13:10.587Z,99372.22
2018-07-13T04:15:39.792Z,99372.02
2018-07-13T04:18:13.287Z,99376.40
2018-07-13T04:20:42.406Z,99369.20
2018-07-13T04:23:11.611Z,99374.94
2018-07-13T04:25:40.877Z,99373.98
2018-07-13T04:28:10.015Z,99373.28
2018-07-13T04:30:39.036Z,99372.16
2018-07-13T04:33:08.154Z,99368.36
2018-07-13T04:35:37.461Z,99365.08
2018-07-13T04:38:12.658Z,99372.20
2018-07-13T04:40:41.838Z,99368.98
2018-07-13T04:43:14.427Z,99374.78
2018-07-13T04:45:56.646Z,99376.41
2018-07-13T04:48:26.321Z,99373.48
2018-07-13T04:50:59.936Z,99375.34
2018-07-13T04:53:30.768Z,99378.51
2018-07-13T04:56:00.108Z,99377.80
2018-07-13T04:58:29.222Z,99376.04
2018-07-13T05:00:58.479Z,99376.06
2018-07-13T05:03:27.702Z,99380.73
2018-07-13T05:05:56.952Z,99381.84
2018-07-13T05:08:26.268Z,99379.45
2018-07-13T05:10:55.518Z,99380.11
2018-07-13T05:13:24.461Z,99379.01
2018-07-13T05:15:54.391Z,99376.22
2018-07-13T05:18:23.599Z,99385.22
2018-07-13T05:20:52.625Z,99382.94
2018-07-13T05:23:22.128Z,99379.11
2018-07-13T05:25:51.451Z,99382.45
2018-07-13T05:28:20.676Z,99375.52
2018-07-13T05:30:51.851Z,99387.22
2018-07-13T05:33:21.064Z,99383.20
2018-07-13T05:35:50.506Z,99385.09
2018-07-13T05:38:19.856Z,99384.20
2018-07-13T05:40:49.080Z,99380.50
2018-07-13T05:43:18.391Z,99379.89
2018-07-13T05:45:47.812Z,99381.53
2018-07-13T05:48:16.996Z,99377.55
2018-07-13T05:50:46.374Z,99378.41
2018-07-13T05:53:15.621Z,99373.89
2018-07-13T05:55:44.739Z,99375.87
2018-07-13T05:58:13.914Z,99370.33
2018-07-13T06:00:43.403Z,99374.59
2018-07-13T06:03:12.572Z,99362.85
2018-07-13T06:05:41.786Z,99364.36
2018-07-13T06:08:11.227Z,99368.41
2018-07-13T06:10:40.348Z,99355.45
2018-07-13T06:13:09.603Z,99358.17
2018-07-13T06:15:38.751Z,99351.92
2018-07-13T06:18:08.157Z,99354.76
2018-07-13T06:20:37.203Z,99352.78
2018-07-13T06:23:06.532Z,99356.67
2018-07-13T06:25:35.333Z,99349.39
2018-07-13T06:28:04.402Z,99360.28
2018-07-13T06:30:33.768Z,99353.66
2018-07-13T06:33:02.767Z,99364.09
2018-07-13T06:35:31.662Z,99361.63
2018-07-13T06:38:00.645Z,99354.52
2018-07-13T06:40:29.654Z,99354.17
2018-07-13T06:42:58.539Z,99353.47
2018-07-13T06:45:27.725Z,99358.32
2018-07-13T06:47:56.823Z,99352.39
2018-07-13T06:50:28.140Z,99358.45
2018-07-13T06:52:57.253Z,99360.13
2018-07-13T06:55:26.131Z,99358.03
2018-07-13T06:58:06.190Z,99350.56
2018-07-13T07:01:06.594Z,99352.80
2018-07-13T07:03:42.385Z,99348.27
2018-07-13T07:06:14.919Z,99353.30
2018-07-13T07:08:49.636Z,99362.23
2018-07-13T07:11:19.185Z,99352.66
2018-07-13T07:13:48.375Z,99345.78
2018-07-13T07:16:17.561Z,99351.33
2018-07-13T07:18:46.458Z,99343.64
2018-07-13T07:21:15.421Z,99351.59
2018-07-13T07:23:44.390Z,99345.59
2018-07-13T07:26:13.364Z,99342.62
2018-07-13T07:28:43.011Z,99340.81
2018-07-13T07:31:12.001Z,99343.98
2018-07-13T07:33:41.067Z,99343.08
2018-07-13T07:36:10.292Z,99341.92
2018-07-13T07:38:39.364Z,99343.55
2018-07-13T07:41:08.370Z,99349.23
2018-07-13T07:43:37.863Z,99347.24
2018-07-13T07:46:06.911Z,99345.36
2018-07-13T07:48:35.802Z,99353.31
2018-07-13T07:51:04.873Z,99347.97
2018-07-13T07:53:33.923Z,99356.13
2018-07-13T07:56:02.839Z,99350.19
2018-07-13T07:58:31.961Z,99350.94
2018-07-13T08:01:00.881Z,99352.50
2018-07-13T08:03:30.813Z,99353.76
2018-07-13T08:05:59.985Z,99354.28
2018-07-13T08:08:28.898Z,99344.77
2018-07-13T08:10:57.800Z,99350.86
2018-07-13T08:13:26.846Z,99349.91
2018-07-13T08:15:55.771Z,99342.98
2018-07-13T08:18:24.613Z,99345.94
2018-07-13T08:20:53.892Z,99343.84
2018-07-13T08:23:23.008Z,99341.64
2018-07-13T08:25:52.565Z,99342.80
2018-07-13T08:28:22.244Z,99340.91
2018-07-13T08:30:55.612Z,99343.94
2018-07-13T08:33:24.637Z,99347.25
2018-07-13T08:35:53.564Z,99344.30
2018-07-13T08:38:22.591Z,99334.83
2018-07-13T08:40:51.896Z,99338.75
2018-07-13T08:43:20.924Z,99340.40
2018-07-13T08:45:49.935Z,99341.47
2018-07-13T08:48:19.397Z,99340.80
2018-07-13T08:50:48.554Z,99340.34
2018-07-13T08:53:17.712Z,99341.17
2018-07-13T08:55:46.950Z,99333.72
2018-07-13T08:58:16.990Z,99337.59
2018-07-13T09:00:46.148Z,99339.45
2018-07-13T09:03:15.237Z,99339.39
2018-07-13T09:05:44.252Z,99338.95
2018-07-13T09:08:13.324Z,99337.70
2018-07-13T09:10:42.940Z,99336.12
2018-07-13T09:13:12.132Z,99332.26
2018-07-13T09:15:41.062Z,99332.94
2018-07-13T09:18:10.197Z,99330.73
2018-07-13T09:20:39.251Z,99329.03
2018-07-13T09:23:08.252Z,99331.73
2018-07-13T09:25:37.276Z,99331.20
2018-07-13T09:28:06.370Z,99330.68
2018-07-13T09:30:35.283Z,99330.14
2018-07-13T09:33:04.760Z,99324.67
2018-07-13T09:35:33.780Z,99324.95
2018-07-13T09:38:02.820Z,99319.68
2018-07-13T09:40:31.956Z,99313.09
2018-07-13T09:43:00.884Z,99308.02
2018-07-13T09:45:29.959Z,99306.91
2018-07-13T09:47:58.938Z,99306.03
2018-07-13T09:50:27.948Z,99308.58
2018-07-13T09:52:57.005Z,99305.47
2018-07-13T09:55:26.319Z,99301.61
2018-07-13T09:57:55.427Z,99301.56
2018-07-13T10:00:28.798Z,99301.58
2018-07-13T10:02:57.850Z,99295.56
2018-07-13T10:05:26.910Z,99298.69
2018-07-13T10:07:57.077Z,99297.03
2018-07-13T10:10:26.005Z,99292.77
2018-07-13T10:12:55.176Z,99290.84
2018-07-13T10:15:24.248Z,99289.50
2018-07-13T10:17:53.261Z,99288.03
2018-07-13T10:20:22.329Z,99285.30
2018-07-13T10:22:51.676Z,99281.32
2018-07-13T10:25:20.797Z,99277.55
2018-07-13T10:27:49.912Z,99275.41
2018-07-13T10:30:19.158Z,99276.78
2018-07-13T10:32:48.293Z,99268.19
2018-07-13T10:35:17.391Z,99264.55
2018-07-13T10:37:46.456Z,99264.14
2018-07-13T10:40:15.457Z,99261.20
2018-07-13T10:42:44.275Z,99252.28
2018-07-13T10:45:13.253Z,99258.47
2018-07-13T10:47:42.318Z,99251.38
2018-07-13T10:50:11.141Z,99251.97
2018-07-13T10:52:40.316Z,99242.75
2018-07-13T10:55:09.284Z,99244.20
2018-07-13T10:57:38.271Z,99247.64
2018-07-13T11:00:08.405Z,99239.71
2018-07-13T11:02:37.345Z,99229.14
2018-07-13T11:05:06.322Z,99234.62
2018-07-13T11:07:35.527Z,99236.73
2018-07-13T11:10:04.452Z,99227.57
2018-07-13T11:12:33.495Z,99234.58
2018-07-13T11:15:02.523Z,99228.27
2018-07-13T11:17:31.339Z,99218.67
2018-07-13T11:20:00.282Z,99223.22
2018-07-13T11:22:29.212Z,99212.28
2018-07-13T11:24:58.135Z,99219.12
2018-07-13T11:27:27.031Z,99214.59
2018-07-13T11:29:56.424Z,99216.72
2018-07-13T11:32:27.206Z,99206.22
2018-07-13T11:34:56.284Z,99210.81
2018-07-13T11:37:25.678Z,99201.34
2018-07-13T11:39:54.497Z,99194.73
2018-07-13T11:42:24.794Z,99184.89
2018-07-13T11:44:53.883Z,99179.66
2018-07-13T11:47:23.686Z,99176.87
2018-07-13T11:49:53.114Z,99175.00
2018-07-13T11:52:21.987Z,99176.16
2018-07-13T11:54:51.114Z,99170.30
2018-07-13T11:57:20.240Z,99171.72
2018-07-13T11:59:49.239Z,99168.51
2018-07-13T12:02:18.527Z,99165.04
2018-07-13T12:04:47.620Z,99159.95
2018-07-13T12:07:16.450Z,99161.67
2018-07-13T12:09:45.417Z,99162.16
2018-07-13T12:12:14.649Z,99162.00
2018-07-13T12:14:43.588Z,99153.88
2018-07-13T12:17:12.620Z,99153.38
2018-07-13T12:19:42.005Z,99144.19
2018-07-13T12:22:10.992Z,99153.00
2018-07-13T12:24:40.079Z,99147.87
2018-07-13T12:27:08.994Z,99148.16
2018-07-13T12:29:37.836Z,99143.66
2018-07-13T12:32:06.731Z,99140.09
2018-07-13T12:34:35.619Z,99134.25
2018-07-13T12:37:04.552Z,99133.89
2018-07-13T12:39:33.496Z,99125.88
2018-07-13T12:42:02.498Z,99133.80
2018-07-13T12:44:31.439Z,99135.48
2018-07-13T12:47:00.351Z,99137.53
2018-07-13T12:49:29.733Z,99130.30
2018-07-13T12:51:58.727Z,99132.03
2018-07-13T12:54:27.832Z,99133.71
2018-07-13T12:56:56.807Z,99140.56
2018-07-13T12:59:25.945Z,99138.87
2018-07-13T13:01:54.994Z,99152.09
2018-07-13T13:04:24.028Z,99141.73
2018-07-13T13:06:53.041Z,99140.95
2018-07-13T13:09:21.940Z,99142.55
2018-07-13T13:11:51.053Z,99137.99
2018-07-13T13:14:19.943Z,99142.24
2018-07-13T13:16:48.892Z,99157.13
2018-07-13T13:19:17.808Z,99165.24
2018-07-13T13:21:46.914Z,99161.69
2018-07-13T13:24:16.193Z,99167.25
2018-07-13T13:26:45.314Z,99187.43
2018-07-13T13:29:14.300Z,99178.20
2018-07-13T13:31:43.110Z,99213.05
2018-07-13T13:34:12.570Z,99244.88
2018-07-13T13:36:41.593Z,99251.73
2018-07-13T13:39:10.425Z,99229.16
2018-07-13T13:41:39.546Z,99254.36
2018-07-13T13:44:08.466Z,99236.38
2018-07-13T13:46:37.333Z,99254.67
2018-07-13T13:49:06.296Z,99251.28
2018-07-13T13:51:35.208Z,99247.25
2018-07-13T13:54:04.145Z,99240.45
2018-07-13T13:56:33.791Z,99229.84
2018-07-13T13:59:02.657Z,99212.34
2018-07-13T14:01:31.769Z,99211.30
2018-07-13T14:04:00.743Z,99209.95
2018-07-13T14:06:29.630Z,99217.23
2018-07-13T14:08:58.723Z,99232.48
2018-07-13T14:11:27.616Z,99223.20
2018-07-13T14:13:56.737Z,99229.62
2018-07-13T14:16:25.676Z,99226.66
2018-07-13T14:18:55.031Z,99246.31
2018-07-13T14:21:24.032Z,99241.11
2018-07-13T14:23:52.948Z,99231.95
2018-07-13T14:26:21.896Z,99222.71
2018-07-13T14:28:50.792Z,99211.56
2018-07-13T14:31:19.786Z,99214.02
2018-07-13T14:33:48.951Z,99215.73
2018-07-13T14:36:17.842Z,99223.61
2018-07-13T14:38:46.776Z,99221.81
2018-07-13T14:41:16.004Z,99202.97
2018-07-13T14:43:44.957Z,99201.23
2018-07-13T14:46:13.963Z,99204.64
2018-07-13T14:48:43.217Z,99202.28
2018-07-13T14:51:12.215Z,99201.69
2018-07-13T14:53:41.207Z,99207.61
2018-07-13T14:56:10.889Z,99212.95
2018-07-13T14:58:39.809Z,99213.77
2018-07-13T15:01:08.820Z,99205.63
2018-07-13T15:03:38.513Z,99200.75
2018-07-13T15:06:07.504Z,99204.79
2018-07-13T15:08:36.391Z,99198.58
2018-07-13T15:11:05.428Z,99202.08
2018-07-13T15:13:34.387Z,99188.80
2018-07-13T15:16:03.319Z,99195.27
2018-07-13T15:18:32.320Z,99193.45
2018-07-13T15:21:01.358Z,99193.77
2018-07-13T15:23:30.237Z,99199.51
2018-07-13T15:25:59.520Z,99200.61
2018-07-13T15:28:28.641Z,99203.64
2018-07-13T15:30:57.727Z,99194.66
2018-07-13T15:33:26.906Z,99194.50
2018-07-13T15:35:56.020Z,99195.19
2018-07-13T15:38:25.084Z,99199.01
2018-07-13T15:40:54.275Z,99193.06
2018-07-13T15:43:24.793Z,99196.29
2018-07-13T15:45:53.826Z,99195.62
2018-07-13T15:48:23.245Z,99197.97
2018-07-13T15:50:52.366Z,99196.09
2018-07-13T15:53:21.379Z,99191.97
2018-07-13T15:56:01.212Z,99197.27
2018-07-13T15:58:30.348Z,99198.63
2018-07-13T16:00:59.579Z,99190.94
2018-07-13T16:03:34.629Z,99195.75
2018-07-13T16:06:07.317Z,99198.71
2018-07-13T16:08:38.958Z,99201.47
2018-07-13T16:11:08.620Z,99203.34
2018-07-13T16:13:37.894Z,99200.00
2018-07-13T16:16:08.057Z,99199.72
2018-07-13T16:18:40.246Z,99198.59
2018-07-13T16:21:09.287Z,99199.05
2018-07-13T16:23:38.577Z,99196.45
2018-07-13T16:26:08.819Z,99186.74
2018-07-13T16:28:37.906Z,99192.83
2018-07-13T16:31:07.153Z,99193.64
2018-07-13T16:33:36.530Z,99195.32
2018-07-13T16:36:05.797Z,99194.92
2018-07-13T16:38:34.832Z,99191.78
2018-07-13T16:41:03.926Z,99191.66
2018-07-13T16:43:39.711Z,99191.88
2018-07-13T16:46:11.766Z,99195.45
2018-07-13T16:48:40.872Z,99193.34
2018-07-13T16:51:11.513Z,99201.19
2018-07-13T16:53:42.300Z,99196.89
2018-07-13T16:56:12.997Z,99200.36
2018-07-13T16:58:42.218Z,99203.70
2018-07-13T17:01:13.499Z,99204.12
2018-07-13T17:03:44.647Z,99203.92
2018-07-13T17:06:14.247Z,99207.16
2018-07-13T17:08:43.607Z,99203.19
2018-07-13T17:11:12.836Z,99202.13
2018-07-13T17:13:41.862Z,99198.89
2018-07-13T17:16:11.042Z,99206.17
2018-07-13T17:18:40.037Z,99205.13
2018-07-13T17:21:10.365Z,99212.66
2018-07-13T17:23:39.540Z,99215.22
2018-07-13T17:26:08.771Z,99219.38
2018-07-13T17:28:39.021Z,99224.91
2018-07-13T17:31:08.081Z,99218.50
2018-07-13T17:33:38.278Z,99219.86
2018-07-13T17:36:08.579Z,99219.23
2018-07-13T17:38:38.455Z,99223.28
2018-07-13T17:41:08.491Z,99227.55
2018-07-13T17:43:38.673Z,99223.72
2018-07-13T17:46:13.537Z,99228.02
2018-07-13T17:48:43.019Z,99232.59
2018-07-13T17:51:15.395Z,99225.87
2018-07-13T17:53:44.521Z,99230.96
2018-07-13T17:56:13.657Z,99223.49
2018-07-13T17:58:42.899Z,99234.23
2018-07-13T18:01:11.944Z,99233.80
2018-07-13T18:03:41.074Z,99244.69
2018-07-13T18:06:10.159Z,99241.42
2018-07-13T18:08:39.254Z,99244.36
2018-07-13T18:11:08.247Z,99247.80
2018-07-13T18:13:38.804Z,99250.77
2018-07-13T18:16:07.840Z,99255.67
2018-07-13T18:18:36.800Z,99258.66
2018-07-13T18:21:05.749Z,99260.41
2018-07-13T18:23:34.830Z,99258.13
2018-07-13T18:26:03.997Z,99257.80
2018-07-13T18:28:33.201Z,99262.05
2018-07-13T18:31:02.241Z,99263.28
2018-07-13T18:33:31.382Z,99270.03
2018-07-13T18:36:00.315Z,99269.06
2018-07-13T18:38:29.942Z,99276.87
2018-07-13T18:40:58.829Z,99277.93
2018-07-13T18:43:27.810Z,99287.19
2018-07-13T18:45:57.324Z,99290.14
2018-07-13T18:48:26.244Z,99306.12
2018-07-13T18:50:55.416Z,99303.81
2018-07-13T18:53:24.451Z,99308.26
2018-07-13T18:55:53.481Z,99320.30
2018-07-13T18:58:22.503Z,99318.38
2018-07-13T19:00:52.759Z,99321.85
2018-07-13T19:03:21.820Z,99320.30
2018-07-13T19:05:51.000Z,99326.38
2018-07-13T19:08:20.059Z,99330.67
2018-07-13T19:10:49.247Z,99332.55
2018-07-13T19:13:18.222Z,99329.19
2018-07-13T19:15:47.722Z,99343.13
2018-07-13T19:18:16.951Z,99347.19
2018-07-13T19:20:45.996Z,99343.97
2018-07-13T19:23:15.121Z,99350.41
2018-07-13T19:25:44.110Z,99345.97
2018-07-13T19:28:13.113Z,99350.68
2018-07-13T19:30:42.377Z,99348.81
2018-07-13T19:33:11.372Z,99356.42
2018-07-13T19:35:40.790Z,99355.77
2018-07-13T19:38:09.786Z,99356.42
2018-07-13T19:40:39.467Z,99357.77
2018-07-13T19:43:08.932Z,99360.40
2018-07-13T19:45:38.850Z,99358.39
2018-07-13T19:48:07.992Z,99356.22
2018-07-13T19:50:37.136Z,99360.52
2018-07-13T19:53:06.247Z,99359.84
2018-07-13T19:55:35.701Z,99366.14
2018-07-13T19:58:04.751Z,99363.76
2018-07-13T20:00:34.022Z,99364.13
2018-07-13T20:03:03.194Z,99360.60
2018-07-13T20:05:32.353Z,99357.57
2018-07-13T20:08:01.466Z,99355.75
2018-07-13T20:10:30.541Z,99362.84
2018-07-13T20:12:59.684Z,99360.90
2018-07-13T20:15:28.835Z,99359.08
2018-07-13T20:17:57.863Z,99360.62
2018-07-13T20:20:27.060Z,99350.14
2018-07-13T20:22:56.330Z,99354.72
2018-07-13T20:25:25.518Z,99355.42
2018-07-13T20:27:54.812Z,99350.84
2018-07-13T20:30:23.906Z,99350.33
2018-07-13T20:32:53.014Z,99345.45
2018-07-13T20:35:22.164Z,99348.00
2018-07-13T20:37:51.453Z,99351.73
2018-07-13T20:40:20.568Z,99356.49
2018-07-13T20:42:49.874Z,99356.17
2018-07-13T20:45:18.926Z,99359.16
2018-07-13T20:47:48.075Z,99358.69
2018-07-13T20:50:17.242Z,99363.44
2018-07-13T20:52:46.249Z,99370.72
2018-07-13T20:55:15.847Z,99369.55
2018-07-13T20:57:45.566Z,99370.62
2018-07-13T21:00:15.480Z,99364.19
2018-07-13T21:02:44.505Z,99366.56
2018-07-13T21:05:14.277Z,99369.95
2018-07-13T21:07:43.454Z,99375.01
2018-07-13T21:10:12.612Z,99372.16
2018-07-13T21:12:41.879Z,99367.81
2018-07-13T21:15:10.878Z,99373.44
2018-07-13T21:17:39.872Z,99370.78
2018-07-13T21:20:09.289Z,99365.73
2018-07-13T21:22:39.655Z,99367.27
2018-07-13T21:25:09.223Z,99362.92
2018-07-13T21:27:38.219Z,99357.33
2018-07-13T21:30:07.455Z,99355.83
2018-07-13T21:32:36.934Z,99359.61
2018-07-13T21:35:08.040Z,99358.08
2018-07-13T21:37:37.193Z,99360.30
2018-07-13T21:40:06.226Z,99357.62
2018-07-13T21:42:35.264Z,99358.46
2018-07-13T21:45:04.677Z,99359.52
2018-07-13T21:47:33.642Z,99355.48
2018-07-13T21:50:02.781Z,99360.23
2018-07-13T21:52:32.219Z,99353.63
2018-07-13T21:55:01.413Z,99354.79
2018-07-13T21:57:30.514Z,99353.48
2018-07-13T21:59:59.669Z,99354.52
2018-07-13T22:02:28.517Z,99346.74
2018-07-13T22:04:57.538Z,99350.78
2018-07-13T22:07:28.208Z,99355.68
2018-07-13T22:09:57.314Z,99359.05
2018-07-13T22:12:26.267Z,99354.16
2018-07-13T22:14:55.949Z,99347.44
2018-07-13T22:17:24.890Z,99345.39
2018-07-13T22:19:53.997Z,99348.27
2018-07-13T22:22:27.187Z,99347.27
2018-07-13T22:24:56.204Z,99347.76
2018-07-13T22:27:25.324Z,99348.09
2018-07-13T22:29:54.345Z,99349.61
2018-07-13T22:32:23.737Z,99346.42
2018-07-13T22:34:52.831Z,99337.81
2018-07-13T22:37:22.165Z,99342.03
2018-07-13T22:39:52.072Z,99336.48
2018-07-13T22:42:21.806Z,99338.34
2018-07-13T22:44:51.426Z,99345.26
2018-07-13T22:47:20.540Z,99339.69
2018-07-13T22:49:49.481Z,99339.69
2018-07-13T22:52:24.502Z,99339.52
2018-07-13T22:54:53.484Z,99340.35
2018-07-13T22:57:22.567Z,99334.95
2018-07-13T22:59:52.420Z,99333.12
2018-07-13T23:02:21.466Z,99339.70
2018-07-13T23:04:50.460Z,99332.45
2018-07-13T23:07:19.714Z,99341.72
2018-07-13T23:09:48.573Z,99334.12
2018-07-13T23:12:21.830Z,99336.99
2018-07-13T23:14:50.839Z,99340.22
2018-07-13T23:17:19.776Z,99345.08
2018-07-13T23:19:48.884Z,99340.72
2018-07-13T23:22:17.806Z,99338.87
2018-07-13T23:24:46.952Z,99330.09
2018-07-13T23:27:16.298Z,99335.48
2018-07-13T23:29:46.359Z,99336.84
2018-07-13T23:32:15.416Z,99336.48
2018-07-13T23:34:44.846Z,99335.82
2018-07-13T23:37:13.726Z,99334.45
2018-07-13T23:39:42.772Z,99332.96
2018-07-13T23:42:12.103Z,99338.52
2018-07-13T23:44:41.264Z,99340.02
2018-07-13T23:47:10.142Z,99342.03
2018-07-13T23:49:39.634Z,99341.54
2018-07-13T23:52:08.607Z,99338.00
2018-07-13T23:54:37.571Z,99340.37
2018-07-13T23:57:07.090Z,99335.95
2018-07-13T23:59:36.092Z,99332.44
